Time;durP1;ratioP1;P1;durP2;ratioP2;P2;SDS_P1;SDS_P2;PMS_P1;PMS_P2;Temp;Humidity;BMP_temperature;BMP_pressure;BME280_temperature;BME280_humidity;BME280_pressure;Samples;Min_cycle;Max_cycle;Signal;HPM_P1;HPM_P2
2022/12/02 00:02:30;;;;;;;152.70;50.75;;;5.30;99.90;;;;;;5012035;28;20121;-93
2022/12/02 00:05:14;;;;;;;121.60;41.30;;;5.30;99.90;;;;;;5006387;28;20488;-93
2022/12/02 00:07:40;;;;;;;128.75;44.78;;;5.20;99.90;;;;;;5011581;28;20027;-93
2022/12/02 00:10:31;;;;;;;129.05;44.10;;;5.10;99.90;;;;;;5014825;28;20036;-92
2022/12/02 00:13:22;;;;;;;138.80;46.60;;;5.10;99.90;;;;;;5008965;28;20036;-94
2022/12/02 00:15:51;;;;;;;128.85;43.30;;;5.00;99.90;;;;;;5028218;28;20037;-93
2022/12/02 00:18:17;;;;;;;118.40;40.75;;;5.00;99.90;;;;;;5016100;28;20034;-94
2022/12/02 00:20:43;;;;;;;124.63;43.10;;;4.90;99.90;;;;;;5015881;28;20069;-94
2022/12/02 00:23:09;;;;;;;110.35;38.03;;;4.90;99.90;;;;;;5016431;28;20022;-93
2022/12/02 00:25:35;;;;;;;116.00;40.95;;;4.80;99.90;;;;;;5016006;28;20053;-93
2022/12/02 00:28:01;;;;;;;124.45;42.90;;;4.80;99.90;;;;;;5019568;28;20416;-93
2022/12/02 00:30:28;;;;;;;114.13;41.75;;;4.80;99.90;;;;;;5019978;28;20032;-93
2022/12/02 00:32:54;;;;;;;104.72;39.75;;;4.70;99.90;;;;;;5019679;28;20037;-95
2022/12/02 00:35:22;;;;;;;110.63;39.95;;;4.70;99.90;;;;;;5018778;28;20395;-93
2022/12/02 00:37:48;;;;;;;100.75;40.58;;;4.70;99.90;;;;;;5011445;28;20057;-93
2022/12/02 00:40:14;;;;;;;116.20;43.55;;;4.70;99.90;;;;;;5018337;28;20140;-93
2022/12/02 00:42:39;;;;;;;104.65;40.05;;;4.60;99.90;;;;;;5018517;28;20037;-93
2022/12/02 00:47:49;;;;;;;106.75;39.58;;;4.60;99.90;;;;;;5016712;28;20084;-92
2022/12/02 00:50:15;;;;;;;104.97;40.97;;;4.60;99.90;;;;;;5015366;28;20022;-93
2022/12/02 00:52:40;;;;;;;96.03;36.28;;;4.60;99.90;;;;;;5034691;28;20030;-93
2022/12/02 00:55:07;;;;;;;99.95;39.55;;;4.60;99.90;;;;;;5015369;28;20022;-93
2022/12/02 00:57:32;;;;;;;99.60;37.58;;;4.60;99.90;;;;;;5018530;28;20026;-92
2022/12/02 00:59:58;;;;;;;95.50;37.40;;;4.60;99.90;;;;;;5018784;28;20101;-93
2022/12/02 01:02:23;;;;;;;86.60;34.72;;;4.60;99.90;;;;;;5018579;28;20040;-92
2022/12/02 01:04:49;;;;;;;84.50;33.47;;;4.60;99.90;;;;;;5018413;28;20121;-93
2022/12/02 01:07:14;;;;;;;88.63;35.47;;;4.60;99.90;;;;;;5015724;28;20027;-92
2022/12/02 01:09:40;;;;;;;89.07;34.67;;;4.60;99.90;;;;;;5021893;28;20510;-94
2022/12/02 01:12:06;;;;;;;90.57;37.70;;;4.60;99.90;;;;;;5017946;28;20014;-92
2022/12/02 01:14:32;;;;;;;84.93;37.15;;;4.60;99.90;;;;;;5022357;28;20057;-93
2022/12/02 01:16:57;;;;;;;82.00;34.53;;;4.50;99.90;;;;;;5011607;28;20030;-94
2022/12/02 01:19:23;;;;;;;91.80;37.08;;;4.60;99.90;;;;;;5016323;28;20033;-94
2022/12/02 01:21:48;;;;;;;89.20;36.45;;;4.50;99.90;;;;;;5017655;28;20026;-94
2022/12/02 01:24:14;;;;;;;92.90;38.50;;;4.50;99.90;;;;;;5017284;28;20443;-94
2022/12/02 01:26:39;;;;;;;94.07;37.05;;;4.50;99.90;;;;;;5017015;28;20056;-94
2022/12/02 01:29:06;;;;;;;89.28;35.83;;;4.50;99.90;;;;;;5018731;28;20052;-93
2022/12/02 01:31:32;;;;;;;94.72;36.13;;;4.50;99.90;;;;;;5017659;28;20026;-93
2022/12/02 01:33:57;;;;;;;82.75;33.90;;;4.50;99.90;;;;;;5026900;28;20401;-93
2022/12/02 01:36:23;;;;;;;89.15;37.33;;;4.50;99.90;;;;;;5012781;28;20049;-93
2022/12/02 01:38:48;;;;;;;95.32;37.00;;;4.40;99.90;;;;;;5017288;28;20476;-93
2022/12/02 01:41:14;;;;;;;95.47;36.88;;;4.40;99.90;;;;;;5019593;28;20025;-93
2022/12/02 01:43:39;;;;;;;93.90;37.13;;;4.40;99.90;;;;;;5011336;28;20034;-93
2022/12/02 01:46:07;;;;;;;87.15;34.97;;;4.40;99.90;;;;;;5017523;28;20038;-94
2022/12/02 01:48:34;;;;;;;90.25;35.67;;;4.40;99.90;;;;;;5025225;28;20113;-92
2022/12/02 01:50:59;;;;;;;91.38;34.65;;;4.40;99.90;;;;;;5018538;28;20069;-95
2022/12/02 01:53:25;;;;;;;81.05;33.58;;;4.40;99.90;;;;;;5017127;28;20018;-94
2022/12/02 01:55:51;;;;;;;83.68;34.33;;;4.40;99.90;;;;;;5022080;28;20057;-92
2022/12/02 01:58:22;;;;;;;88.75;34.40;;;4.40;99.90;;;;;;5026227;28;20109;-94
2022/12/02 02:00:47;;;;;;;92.90;35.38;;;4.40;99.90;;;;;;5011271;28;20077;-92
2022/12/02 02:03:13;;;;;;;77.80;31.45;;;4.40;99.90;;;;;;5018093;28;20021;-93
2022/12/02 02:05:38;;;;;;;82.18;33.58;;;4.40;99.90;;;;;;5017149;28;20026;-93
2022/12/02 02:08:11;;;;;;;93.13;35.47;;;4.40;99.90;;;;;;5018114;28;20034;-93
2022/12/02 02:10:38;;;;;;;91.25;34.33;;;4.40;99.90;;;;;;5020032;28;20285;-93
2022/12/02 02:13:04;;;;;;;81.97;34.33;;;4.40;99.90;;;;;;5014270;28;20026;-94
2022/12/02 02:15:30;;;;;;;85.07;33.83;;;4.40;99.90;;;;;;5020089;28;20040;-93
2022/12/02 02:17:57;;;;;;;81.47;33.88;;;4.40;99.90;;;;;;5012773;28;20097;-92
2022/12/02 02:20:24;;;;;;;79.10;33.20;;;4.30;99.90;;;;;;5017594;28;20668;-94
2022/12/02 02:23:05;;;;;;;86.53;34.88;;;4.30;99.90;;;;;;5014264;28;20026;-94
2022/12/02 02:25:39;;;;;;;86.47;34.70;;;4.40;99.90;;;;;;5016021;28;20522;-93
2022/12/02 02:28:06;;;;;;;78.22;33.60;;;4.30;99.90;;;;;;5013741;28;20117;-94
2022/12/02 02:30:33;;;;;;;80.40;31.90;;;4.40;99.90;;;;;;5016507;28;20418;-93
2022/12/02 02:33:01;;;;;;;81.68;33.58;;;4.40;99.90;;;;;;5016879;28;20018;-93
2022/12/02 02:35:27;;;;;;;80.63;31.60;;;4.40;99.90;;;;;;5013553;28;20029;-94
2022/12/02 02:37:54;;;;;;;83.03;31.45;;;4.40;99.90;;;;;;5015432;28;20034;-92
2022/12/02 02:40:22;;;;;;;83.40;32.85;;;4.40;99.90;;;;;;5018074;28;20452;-93
2022/12/02 02:42:53;;;;;;;79.47;32.40;;;4.40;99.90;;;;;;5018256;28;20041;-95
2022/12/02 02:45:21;;;;;;;84.65;32.60;;;4.40;99.90;;;;;;5017007;28;20049;-93
2022/12/02 02:47:47;;;;;;;81.60;34.05;;;4.40;99.90;;;;;;5012482;28;20038;-94
2022/12/02 02:50:13;;;;;;;71.45;28.83;;;4.40;99.90;;;;;;5015981;28;20040;-94
2022/12/02 02:52:39;;;;;;;80.10;30.42;;;4.30;99.90;;;;;;5013285;28;20068;-93
2022/12/02 02:55:06;;;;;;;85.72;33.47;;;4.30;99.90;;;;;;5004665;28;20027;-93
2022/12/02 02:57:34;;;;;;;80.40;32.33;;;4.30;99.90;;;;;;5014528;28;20030;-93
2022/12/02 02:59:59;;;;;;;92.30;32.88;;;4.30;99.90;;;;;;5028382;28;20041;-93
2022/12/02 03:02:25;;;;;;;77.80;31.20;;;4.30;99.90;;;;;;5014429;28;20112;-92
2022/12/02 03:04:52;;;;;;;79.78;31.13;;;4.20;99.90;;;;;;5015907;28;20097;-93
2022/12/02 03:07:18;;;;;;;89.15;34.15;;;4.20;99.90;;;;;;5029034;28;20031;-94
2022/12/02 03:09:44;;;;;;;80.60;31.67;;;4.20;99.90;;;;;;5004631;28;20044;-94
2022/12/02 03:12:09;;;;;;;84.93;31.20;;;4.20;99.90;;;;;;5014879;28;20034;-94
2022/12/02 03:14:35;;;;;;;80.05;30.05;;;4.20;99.90;;;;;;5014251;28;20057;-94
2022/12/02 03:17:02;;;;;;;90.80;33.30;;;4.20;99.90;;;;;;5018364;28;20026;-93
2022/12/02 03:19:30;;;;;;;85.70;31.42;;;4.20;99.90;;;;;;5015784;28;20026;-94
2022/12/02 03:21:56;;;;;;;78.97;30.77;;;4.20;99.90;;;;;;5017071;28;20439;-93
2022/12/02 03:24:22;;;;;;;80.80;31.30;;;4.20;99.90;;;;;;5016568;28;20033;-94
2022/12/02 03:26:48;;;;;;;67.13;25.02;;;4.20;99.90;;;;;;5029217;28;20194;-94
2022/12/02 03:29:14;;;;;;;84.13;30.90;;;4.20;99.90;;;;;;5016108;28;20028;-94
2022/12/02 03:31:41;;;;;;;81.45;30.25;;;4.20;99.90;;;;;;5013598;28;20494;-94
2022/12/02 03:34:07;;;;;;;69.70;28.60;;;4.20;99.90;;;;;;5012900;28;20030;-93
2022/12/02 03:36:34;;;;;;;71.85;26.73;;;4.20;99.90;;;;;;5016141;28;20369;-94
2022/12/02 03:39:00;;;;;;;78.25;29.13;;;4.10;99.90;;;;;;5032007;28;20030;-93
2022/12/02 03:41:26;;;;;;;76.43;28.88;;;4.10;99.90;;;;;;5010353;28;20399;-92
2022/12/02 03:43:53;;;;;;;72.43;29.08;;;4.00;99.90;;;;;;5015263;28;20034;-93
2022/12/02 03:46:19;;;;;;;64.60;26.17;;;4.00;99.90;;;;;;5013519;28;20134;-96
2022/12/02 03:48:44;;;;;;;66.05;24.75;;;4.00;99.90;;;;;;5015739;28;20053;-95
2022/12/02 03:51:12;;;;;;;66.65;25.98;;;4.00;99.90;;;;;;5015220;28;20037;-95
2022/12/02 03:53:37;;;;;;;63.47;25.90;;;4.00;99.90;;;;;;5009814;28;20030;-94
2022/12/02 03:56:05;;;;;;;64.28;24.45;;;3.90;99.90;;;;;;5017096;28;20026;-94
2022/12/02 03:58:38;;;;;;;65.72;25.55;;;4.00;99.90;;;;;;5016183;28;20061;-94
2022/12/02 04:01:04;;;;;;;63.95;22.83;;;4.00;99.90;;;;;;5031471;28;20033;-95
2022/12/02 04:03:29;;;;;;;53.00;21.33;;;4.00;99.90;;;;;;5018857;28;20030;-95
2022/12/02 04:05:55;;;;;;;54.97;22.73;;;4.00;99.90;;;;;;5017604;28;20045;-92
2022/12/02 04:08:21;;;;;;;53.28;20.73;;;4.00;99.90;;;;;;5001060;28;20034;-94
2022/12/02 04:10:46;;;;;;;55.17;21.08;;;4.00;99.90;;;;;;5012442;28;20038;-94
2022/12/02 04:13:12;;;;;;;48.08;19.63;;;4.00;99.90;;;;;;5013630;28;20072;-94
2022/12/02 04:15:37;;;;;;;51.42;21.77;;;4.10;99.90;;;;;;5017210;28;20033;-95
2022/12/02 04:18:03;;;;;;;46.88;17.85;;;4.00;99.90;;;;;;5031801;28;20089;-94
2022/12/02 04:20:28;;;;;;;51.40;20.85;;;4.10;99.90;;;;;;5032987;28;20115;-94
2022/12/02 04:22:54;;;;;;;52.80;21.20;;;4.00;99.90;;;;;;5019629;28;20028;-94
2022/12/02 04:25:19;;;;;;;52.60;21.23;;;4.00;99.90;;;;;;5018070;28;20030;-95
2022/12/02 04:27:45;;;;;;;44.88;18.83;;;4.00;99.90;;;;;;5015924;28;20033;-94
2022/12/02 04:30:10;;;;;;;58.85;21.02;;;4.00;99.90;;;;;;5016893;28;20025;-94
2022/12/02 04:32:36;;;;;;;47.35;20.40;;;4.00;99.90;;;;;;5014631;28;20030;-94
2022/12/02 04:35:02;;;;;;;48.33;20.58;;;4.00;99.90;;;;;;5025858;28;20411;-94
2022/12/02 04:37:27;;;;;;;47.63;19.00;;;4.10;99.90;;;;;;5020491;28;20058;-94
2022/12/02 04:39:53;;;;;;;43.72;17.42;;;4.10;99.90;;;;;;5017882;28;20029;-94
2022/12/02 04:42:18;;;;;;;47.33;17.70;;;4.10;99.90;;;;;;5016266;28;20018;-94
2022/12/02 04:44:44;;;;;;;50.30;18.45;;;4.00;99.90;;;;;;5015987;28;20030;-95
2022/12/02 04:47:09;;;;;;;51.00;20.00;;;4.10;99.90;;;;;;5017965;28;20042;-93
2022/12/02 04:49:35;;;;;;;50.97;19.42;;;4.10;99.90;;;;;;5009249;28;20029;-94
2022/12/02 04:52:01;;;;;;;56.42;21.70;;;4.00;99.90;;;;;;5010786;28;20033;-95
2022/12/02 04:54:26;;;;;;;59.03;21.33;;;4.00;99.90;;;;;;5017165;28;20038;-95
2022/12/02 04:56:52;;;;;;;60.30;22.52;;;4.00;99.90;;;;;;5015446;28;20053;-95
2022/12/02 04:59:17;;;;;;;67.65;23.27;;;4.00;99.90;;;;;;5018257;28;20030;-95
2022/12/02 05:01:43;;;;;;;62.78;22.45;;;4.00;99.90;;;;;;5015368;28;20075;-95
2022/12/02 05:04:08;;;;;;;64.55;23.33;;;3.90;99.90;;;;;;5015705;28;20126;-95
2022/12/02 05:06:34;;;;;;;67.05;23.65;;;4.00;99.90;;;;;;5017859;28;20034;-95
2022/12/02 05:08:59;;;;;;;76.07;24.98;;;4.00;99.90;;;;;;5018652;28;20018;-93
2022/12/02 05:11:25;;;;;;;62.38;23.02;;;3.90;99.90;;;;;;5016997;28;20025;-95
2022/12/02 05:13:50;;;;;;;62.88;23.95;;;3.90;99.90;;;;;;5017190;28;20025;-95
2022/12/02 05:16:16;;;;;;;65.95;25.58;;;3.90;99.90;;;;;;5018483;28;20060;-95
2022/12/02 05:18:41;;;;;;;62.70;22.75;;;3.90;99.90;;;;;;5019891;28;20029;-95
2022/12/02 05:21:07;;;;;;;68.80;25.45;;;4.00;99.90;;;;;;5014347;28;20116;-95
2022/12/02 05:23:32;;;;;;;64.55;23.70;;;4.00;99.90;;;;;;5018431;28;20028;-93
2022/12/02 05:25:58;;;;;;;61.47;22.70;;;3.90;99.90;;;;;;5021606;28;20042;-93
2022/12/02 05:28:23;;;;;;;66.65;23.55;;;3.90;99.90;;;;;;5017487;28;20558;-94
2022/12/02 05:30:49;;;;;;;56.00;22.15;;;3.90;99.90;;;;;;5017756;28;20558;-93
2022/12/02 05:33:15;;;;;;;59.40;21.48;;;4.00;99.90;;;;;;5016527;28;20033;-93
2022/12/02 05:35:40;;;;;;;65.82;21.30;;;3.90;99.90;;;;;;5015478;28;20038;-94
2022/12/02 05:38:06;;;;;;;54.28;20.70;;;3.90;99.90;;;;;;5013659;28;20054;-93
2022/12/02 05:40:31;;;;;;;49.80;18.50;;;3.90;99.90;;;;;;5015074;28;20026;-93
2022/12/02 05:43:02;;;;;;;51.17;19.27;;;3.90;99.90;;;;;;5016892;28;20030;-94
2022/12/02 05:45:28;;;;;;;52.92;19.42;;;3.90;99.90;;;;;;5010399;28;20046;-92
2022/12/02 05:47:53;;;;;;;52.15;19.13;;;3.90;99.90;;;;;;5015680;28;20479;-92
2022/12/02 05:50:20;;;;;;;55.10;19.58;;;3.80;99.90;;;;;;5015309;28;20084;-92
2022/12/02 05:52:48;;;;;;;50.20;19.58;;;3.80;99.90;;;;;;5017840;28;20022;-93
2022/12/02 05:55:16;;;;;;;52.35;19.52;;;3.80;99.90;;;;;;5016473;28;20033;-93
2022/12/02 05:57:42;;;;;;;47.97;18.88;;;3.80;99.90;;;;;;5016030;28;20057;-92
2022/12/02 06:00:11;;;;;;;50.78;19.27;;;3.80;99.90;;;;;;5016117;28;20026;-92
2022/12/02 06:02:40;;;;;;;44.67;18.08;;;3.80;99.90;;;;;;5013577;28;20040;-92
2022/12/02 06:05:28;;;;;;;43.33;17.75;;;3.70;99.90;;;;;;5011378;28;20042;-92
2022/12/02 06:08:04;;;;;;;48.13;20.02;;;3.80;99.90;;;;;;5013965;28;20033;-91
2022/12/02 06:10:31;;;;;;;49.50;20.15;;;3.80;99.90;;;;;;5014700;28;20037;-92
2022/12/02 06:13:01;;;;;;;49.60;19.85;;;3.80;99.90;;;;;;5015523;28;20117;-92
2022/12/02 06:15:34;;;;;;;45.70;17.95;;;3.70;99.90;;;;;;5015239;28;20128;-91
2022/12/02 06:17:59;;;;;;;;;;;3.70;99.90;;;;;;5023704;28;20057;-92
2022/12/02 06:20:29;;;;;;;48.40;17.02;;;3.70;99.90;;;;;;5015554;28;19932;-92
2022/12/02 06:22:55;;;;;;;42.20;15.63;;;3.70;99.90;;;;;;5015506;28;20103;-92
2022/12/02 06:25:27;;;;;;;43.28;16.98;;;3.60;99.90;;;;;;5011840;28;20038;-91
2022/12/02 06:28:04;;;;;;;39.35;15.90;;;3.70;99.90;;;;;;5016362;28;20036;-92
2022/12/02 06:30:30;;;;;;;41.35;16.70;;;3.70;99.90;;;;;;5010786;28;20026;-92
2022/12/02 06:32:58;;;;;;;42.50;17.02;;;3.70;99.90;;;;;;5021572;28;20026;-93
2022/12/02 06:35:25;;;;;;;44.08;18.23;;;3.70;99.90;;;;;;5029280;28;20061;-92
2022/12/02 06:37:55;;;;;;;40.50;17.58;;;3.70;99.90;;;;;;5016839;28;20061;-92
2022/12/02 06:40:24;;;;;;;42.55;17.77;;;3.70;99.90;;;;;;5015010;28;20080;-91
2022/12/02 06:42:50;;;;;;;43.70;17.23;;;3.70;99.90;;;;;;5011854;28;20084;-93
2022/12/02 06:45:31;;;;;;;40.17;16.83;;;3.70;99.90;;;;;;5015121;28;20033;-91
2022/12/02 06:48:24;;;;;;;40.33;17.10;;;3.70;99.90;;;;;;5000262;28;20034;-92
2022/12/02 06:50:49;;;;;;;43.33;16.40;;;3.70;99.90;;;;;;5010854;28;20321;-92
2022/12/02 06:53:24;;;;;;;43.65;17.38;;;3.70;99.90;;;;;;5016410;28;20026;-92
2022/12/02 06:56:12;;;;;;;44.85;18.80;;;3.70;99.90;;;;;;5016270;28;20068;-91
2022/12/02 06:58:44;;;;;;;49.22;19.02;;;3.70;99.90;;;;;;5002754;28;20037;-91
2022/12/02 07:01:32;;;;;;;52.13;18.73;;;3.70;99.90;;;;;;5015237;28;20022;-91
2022/12/02 07:04:26;;;;;;;48.63;19.88;;;3.70;99.90;;;;;;5015294;28;20033;-91
2022/12/02 07:06:58;;;;;;;45.78;19.75;;;3.80;99.90;;;;;;5014223;28;20117;-90
2022/12/02 07:09:37;;;;;;;48.05;19.67;;;3.70;99.90;;;;;;5014123;28;20018;-91
2022/12/02 07:12:09;;;;;;;40.78;18.33;;;3.80;99.90;;;;;;5005617;28;20092;-90
2022/12/02 07:14:48;;;;;;;46.95;19.55;;;3.80;99.90;;;;;;5011269;28;20026;-91
2022/12/02 07:17:25;;;;;;;60.45;23.52;;;3.80;99.90;;;;;;5015955;28;20030;-91
2022/12/02 07:19:54;;;;;;;50.72;20.23;;;3.80;99.90;;;;;;5013495;28;20026;-92
2022/12/02 07:22:23;;;;;;;43.25;18.83;;;3.90;99.90;;;;;;5015250;28;20018;-92
2022/12/02 07:25:16;;;;;;;53.22;20.52;;;3.80;99.90;;;;;;5011776;28;20472;-92
2022/12/02 07:27:50;;;;;;;45.55;18.42;;;3.90;99.90;;;;;;5013647;28;20557;-91
2022/12/02 07:30:27;;;;;;;47.10;20.58;;;3.90;99.90;;;;;;5016830;28;20467;-95
2022/12/02 07:32:52;;;;;;;44.58;18.17;;;3.80;99.90;;;;;;5026098;28;20052;-93
2022/12/02 07:35:18;;;;;;;48.50;21.38;;;3.80;99.90;;;;;;5017713;28;20030;-93
2022/12/02 07:37:44;;;;;;;40.05;17.92;;;3.80;99.90;;;;;;5019759;28;20109;-93
2022/12/02 07:40:11;;;;;;;40.72;16.92;;;3.80;99.90;;;;;;5020067;28;20479;-94
2022/12/02 07:42:37;;;;;;;43.45;18.63;;;3.90;99.90;;;;;;5019002;28;20208;-94
2022/12/02 07:45:03;;;;;;;40.72;17.77;;;3.80;99.90;;;;;;5029937;28;20048;-93
2022/12/02 07:47:30;;;;;;;41.42;17.45;;;3.80;99.90;;;;;;5019582;28;20042;-93
2022/12/02 07:49:56;;;;;;;45.10;20.27;;;3.80;99.90;;;;;;5019987;28;20034;-93
2022/12/02 07:52:23;;;;;;;51.40;20.20;;;3.80;99.90;;;;;;5034778;28;20030;-93
2022/12/02 07:54:48;;;;;;;55.55;22.15;;;3.80;99.90;;;;;;5017447;28;20369;-93
2022/12/02 07:57:14;;;;;;;46.28;19.88;;;3.80;99.90;;;;;;5016817;28;20033;-93
2022/12/02 07:59:40;;;;;;;53.50;22.50;;;3.80;99.90;;;;;;5008268;28;20088;-93
2022/12/02 08:02:05;;;;;;;50.90;21.70;;;3.80;99.90;;;;;;5016936;28;20021;-92
2022/12/02 08:04:31;;;;;;;48.53;19.02;;;3.80;99.90;;;;;;5019415;28;20358;-93
2022/12/02 08:06:56;;;;;;;42.88;16.92;;;3.80;99.90;;;;;;5017342;28;20053;-92
2022/12/02 08:09:22;;;;;;;49.33;19.73;;;3.80;99.90;;;;;;5018152;28;20029;-94
2022/12/02 08:11:47;;;;;;;48.22;19.85;;;3.80;99.90;;;;;;5037529;28;20029;-93
2022/12/02 08:14:13;;;;;;;47.63;20.10;;;3.70;99.90;;;;;;5027245;28;20026;-93
2022/12/02 08:16:38;;;;;;;44.53;18.40;;;3.70;99.90;;;;;;5028780;28;20037;-92
2022/12/02 08:19:04;;;;;;;46.25;18.63;;;3.70;99.90;;;;;;5022557;28;20459;-93
2022/12/02 08:21:31;;;;;;;44.40;17.90;;;3.60;99.90;;;;;;5020595;28;20087;-93
2022/12/02 08:23:56;;;;;;;52.60;18.92;;;3.50;99.90;;;;;;5027246;28;20033;-92
2022/12/02 08:26:22;;;;;;;46.75;20.10;;;3.50;99.90;;;;;;5024442;28;20042;-92
2022/12/02 08:28:47;;;;;;;50.83;20.02;;;3.40;99.90;;;;;;5022268;28;20057;-92
2022/12/02 08:31:13;;;;;;;44.15;17.80;;;3.40;99.90;;;;;;5014877;28;20512;-93
2022/12/02 08:33:38;;;;;;;49.10;19.35;;;3.40;99.90;;;;;;5024890;28;20036;-92
2022/12/02 08:36:04;;;;;;;49.33;18.50;;;3.40;99.90;;;;;;5014391;28;20048;-92
2022/12/02 08:38:30;;;;;;;42.90;17.67;;;3.30;99.90;;;;;;5012741;28;20518;-91
2022/12/02 08:40:55;;;;;;;48.83;18.80;;;3.30;99.90;;;;;;5012279;28;20097;-91
2022/12/02 08:43:21;;;;;;;50.88;21.38;;;3.30;99.90;;;;;;5014180;28;20048;-92
2022/12/02 08:45:46;;;;;;;50.10;19.27;;;3.30;99.90;;;;;;5016806;28;20113;-92
2022/12/02 08:48:12;;;;;;;54.20;19.05;;;3.20;99.90;;;;;;5033456;28;20101;-90
2022/12/02 08:50:38;;;;;;;51.83;19.05;;;3.20;99.90;;;;;;5033089;28;20038;-91
2022/12/02 08:53:03;;;;;;;50.83;19.02;;;3.20;99.90;;;;;;5010947;28;20081;-91
2022/12/02 08:55:29;;;;;;;50.13;17.58;;;3.20;99.90;;;;;;5024812;28;20044;-91
2022/12/02 08:57:55;;;;;;;52.10;19.20;;;3.20;99.90;;;;;;5017641;28;20014;-91
2022/12/02 09:00:20;;;;;;;50.42;19.33;;;3.30;99.90;;;;;;5021589;28;20034;-91
2022/12/02 09:02:46;;;;;;;54.80;20.52;;;3.30;99.90;;;;;;5026460;28;20033;-91
2022/12/02 09:05:12;;;;;;;56.88;19.98;;;3.20;99.90;;;;;;5012430;28;20409;-91
2022/12/02 09:07:37;;;;;;;56.85;20.42;;;3.30;99.90;;;;;;5015527;28;20030;-91
2022/12/02 09:10:05;;;;;;;60.38;20.40;;;3.30;99.90;;;;;;5021835;28;20036;-92
2022/12/02 09:12:31;;;;;;;63.10;20.85;;;3.30;99.90;;;;;;5020739;28;20033;-91
2022/12/02 09:14:57;;;;;;;54.38;19.55;;;3.30;99.90;;;;;;5020933;28;20048;-91
2022/12/02 09:17:22;;;;;;;60.13;19.65;;;3.30;99.90;;;;;;5018837;28;20026;-91
2022/12/02 09:19:47;;;;;;;64.45;21.90;;;3.30;99.90;;;;;;5015120;28;20049;-92
2022/12/02 09:22:13;;;;;;;54.67;19.77;;;3.40;99.90;;;;;;5000480;28;20039;-92
2022/12/02 09:24:39;;;;;;;63.80;22.85;;;3.40;99.90;;;;;;5009731;28;20109;-91
2022/12/02 09:27:05;;;;;;;69.60;23.35;;;3.40;99.90;;;;;;5016641;28;20041;-91
2022/12/02 09:29:30;;;;;;;65.22;22.85;;;3.40;99.90;;;;;;5016456;28;20109;-91
2022/12/02 09:31:56;;;;;;;60.28;22.08;;;3.40;99.90;;;;;;5023731;28;20029;-91
2022/12/02 09:34:21;;;;;;;63.38;21.05;;;3.40;99.90;;;;;;5018467;28;20029;-91
2022/12/02 09:36:47;;;;;;;66.90;24.02;;;3.40;99.90;;;;;;5015721;28;20034;-91
2022/12/02 09:39:12;;;;;;;72.38;24.27;;;3.40;99.90;;;;;;5030219;28;20048;-91
2022/12/02 09:41:38;;;;;;;65.38;22.65;;;3.40;99.90;;;;;;5013453;28;20123;-91
2022/12/02 09:44:04;;;;;;;71.45;23.25;;;3.40;99.90;;;;;;5013710;28;20021;-91
2022/12/02 09:46:30;;;;;;;69.25;22.73;;;3.40;99.90;;;;;;5016734;28;20076;-91
2022/12/02 09:48:56;;;;;;;64.72;23.48;;;3.40;99.90;;;;;;5017365;28;20022;-91
2022/12/02 09:51:22;;;;;;;69.57;24.42;;;3.50;99.90;;;;;;5010854;28;20026;-90
2022/12/02 09:53:48;;;;;;;64.22;21.67;;;3.50;99.90;;;;;;5012564;28;20079;-91
2022/12/02 09:56:16;;;;;;;63.75;23.92;;;3.50;99.90;;;;;;5009443;28;20066;-92
2022/12/02 09:58:42;;;;;;;61.78;22.10;;;3.50;99.90;;;;;;5018408;28;20384;-92
2022/12/02 10:01:13;;;;;;;68.13;23.58;;;3.60;99.90;;;;;;5021374;28;20041;-92
2022/12/02 10:03:39;;;;;;;58.63;22.23;;;3.60;99.90;;;;;;5024862;28;20033;-91
2022/12/02 10:06:22;;;;;;;72.50;24.65;;;3.60;99.90;;;;;;5019149;28;20034;-91
2022/12/02 10:08:47;;;;;;;;;;;3.60;99.90;;;;;;5017907;28;20042;-92
2022/12/02 10:11:22;;;;;;;56.38;20.45;;;3.60;99.90;;;;;;5017594;28;19918;-92
2022/12/02 10:13:48;;;;;;;64.88;21.80;;;3.60;99.90;;;;;;5020070;28;20045;-92
2022/12/02 10:16:14;;;;;;;69.75;23.33;;;3.60;99.90;;;;;;5020303;28;20101;-88
2022/12/02 10:18:41;;;;;;;59.95;20.90;;;3.60;99.90;;;;;;5029591;28;20046;-89
2022/12/02 10:21:07;;;;;;;58.72;21.23;;;3.60;99.90;;;;;;5022401;28;20025;-90
2022/12/02 10:23:49;;;;;;;57.75;22.20;;;3.60;99.90;;;;;;5023882;28;20021;-90
2022/12/02 10:26:15;;;;;;;59.80;21.17;;;3.60;99.90;;;;;;5036729;28;20038;-91
2022/12/02 10:28:41;;;;;;;60.05;21.98;;;3.60;99.90;;;;;;5022819;28;20497;-89
2022/12/02 10:31:12;;;;;;;60.20;20.55;;;3.60;99.90;;;;;;5012887;28;20377;-90
2022/12/02 10:33:49;;;;;;;58.70;21.83;;;3.70;99.90;;;;;;5015676;28;20033;-90
2022/12/02 10:36:38;;;;;;;62.88;23.30;;;3.70;99.90;;;;;;5025038;28;20030;-91
2022/12/02 10:39:24;;;;;;;58.47;21.15;;;3.80;99.90;;;;;;5011600;28;20032;-90
2022/12/02 10:42:18;;;;;;;66.68;21.23;;;3.80;99.90;;;;;;5006379;28;20483;-90
2022/12/02 10:44:45;;;;;;;54.80;20.70;;;3.90;99.90;;;;;;5015482;28;20080;-90
2022/12/02 10:47:14;;;;;;;56.25;21.55;;;3.90;99.90;;;;;;5019011;28;20052;-90
2022/12/02 10:49:55;;;;;;;57.75;21.45;;;3.90;99.90;;;;;;5008899;28;20116;-89
2022/12/02 10:52:27;;;;;;;53.72;18.83;;;3.90;99.90;;;;;;4999053;28;20034;-88
2022/12/02 10:54:55;;;;;;;54.15;20.95;;;3.90;99.90;;;;;;5028588;28;20484;-89
2022/12/02 10:57:26;;;;;;;59.10;19.95;;;3.90;99.90;;;;;;5007467;28;20156;-89
2022/12/02 10:59:53;;;;;;;58.92;20.10;;;3.90;99.90;;;;;;5001894;28;20113;-88
2022/12/02 11:02:31;;;;;;;51.75;19.38;;;3.90;99.90;;;;;;5022501;28;20026;-90
2022/12/02 11:05:00;;;;;;;57.85;20.80;;;3.90;99.90;;;;;;5043338;28;20026;-89
2022/12/02 11:07:26;;;;;;;52.45;19.40;;;3.90;99.90;;;;;;5026544;28;20034;-89
2022/12/02 11:09:54;;;;;;;55.88;20.33;;;3.80;99.90;;;;;;4997567;28;20047;-89
2022/12/02 11:12:47;;;;;;;56.85;18.27;;;3.90;99.90;;;;;;5027668;28;20029;-89
2022/12/02 11:15:35;;;;;;;59.40;19.23;;;3.90;99.90;;;;;;5018731;28;20021;-89
2022/12/02 11:18:01;;;;;;;47.80;17.77;;;3.90;99.90;;;;;;5019033;28;20038;-89
2022/12/02 11:20:29;;;;;;;61.05;20.63;;;4.00;99.90;;;;;;5013351;28;20416;-89
2022/12/02 11:22:58;;;;;;;48.38;18.10;;;3.90;99.90;;;;;;5030616;28;20032;-88
2022/12/02 11:25:42;;;;;;;55.63;19.27;;;4.00;99.90;;;;;;5012487;28;20132;-88
2022/12/02 11:28:16;;;;;;;51.13;18.88;;;3.90;99.90;;;;;;5026900;28;20096;-88
2022/12/02 11:30:43;;;;;;;56.33;19.80;;;4.00;99.90;;;;;;5028427;28;20025;-88
2022/12/02 11:33:10;;;;;;;54.90;18.70;;;4.00;99.90;;;;;;5006036;28;20027;-89
2022/12/02 11:36:12;;;;;;;54.80;19.13;;;4.00;99.90;;;;;;5014631;28;20025;-88
2022/12/02 11:39:07;;;;;;;52.70;18.55;;;4.00;99.90;;;;;;5013673;28;20036;-88
2022/12/02 11:42:02;;;;;;;55.67;18.95;;;4.00;99.90;;;;;;5018509;28;20079;-87
2022/12/02 11:44:29;;;;;;;58.17;20.88;;;3.90;99.90;;;;;;4999065;28;20042;-90
2022/12/02 11:46:59;;;;;;;55.67;17.60;;;3.90;99.90;;;;;;5027986;28;20050;-89
2022/12/02 11:49:39;;;;;;;55.85;18.25;;;3.90;99.90;;;;;;5011635;28;20035;-89
2022/12/02 11:52:08;;;;;;;59.13;19.55;;;3.90;99.90;;;;;;5006584;28;20517;-88
2022/12/02 11:54:59;;;;;;;50.67;17.42;;;3.80;99.90;;;;;;5012445;28;20034;-88
2022/12/02 11:57:29;;;;;;;54.33;17.98;;;3.80;99.90;;;;;;4995727;28;20049;-89
2022/12/02 11:59:56;;;;;;;54.70;17.58;;;3.80;99.90;;;;;;5018912;28;20030;-87
2022/12/02 12:02:23;;;;;;;51.25;17.38;;;3.80;99.90;;;;;;5013455;28;20018;-89
2022/12/02 12:05:04;;;;;;;53.75;18.63;;;3.80;99.90;;;;;;5012364;28;20029;-89
2022/12/02 12:07:59;;;;;;;55.08;18.48;;;3.80;99.90;;;;;;5012282;28;20096;-90
2022/12/02 12:10:38;;;;;;;70.28;20.95;;;3.80;99.90;;;;;;4992535;28;20030;-90
2022/12/02 12:13:22;;;;;;;59.50;20.50;;;3.70;99.90;;;;;;5013000;28;20026;-89
2022/12/02 12:15:57;;;;;;;56.70;19.58;;;3.60;99.90;;;;;;5003464;28;20032;-90
2022/12/02 12:18:44;;;;;;;53.65;18.67;;;3.70;99.90;;;;;;5012987;28;20040;-89
2022/12/02 12:21:12;;;;;;;60.83;18.48;;;3.70;99.90;;;;;;5012887;28;20028;-90
2022/12/02 12:23:40;;;;;;;57.92;19.50;;;3.70;99.90;;;;;;5016060;28;20031;-91
2022/12/02 12:26:07;;;;;;;52.72;18.38;;;3.70;99.90;;;;;;5017863;28;20034;-90
2022/12/02 12:28:35;;;;;;;60.22;19.20;;;3.70;99.90;;;;;;5016118;28;20056;-90
2022/12/02 12:31:03;;;;;;;59.22;19.75;;;3.80;99.90;;;;;;5014320;28;20079;-90
2022/12/02 12:33:28;;;;;;;52.30;17.60;;;3.80;99.90;;;;;;5028431;28;20018;-90
2022/12/02 12:35:55;;;;;;;56.97;17.88;;;3.80;99.90;;;;;;5017601;28;20026;-90
2022/12/02 12:38:22;;;;;;;52.25;18.83;;;3.90;99.90;;;;;;5035339;28;20022;-89
2022/12/02 12:40:48;;;;;;;51.95;17.92;;;4.00;99.90;;;;;;5021572;28;20030;-90
2022/12/02 12:43:14;;;;;;;56.90;17.83;;;4.00;99.90;;;;;;5013536;28;20141;-89
2022/12/02 12:45:39;;;;;;;54.90;18.48;;;4.10;99.90;;;;;;5014929;28;20451;-91
2022/12/02 12:48:05;;;;;;;55.70;17.95;;;4.00;99.90;;;;;;5017689;28;20084;-90